Aviation Digital Data Service (ADDS)

Output produced by METARs form (1834 UTC 26 September 2021)
found at http://www.aviationweather.gov/metar/data/
 
METAR text: KTVL 261753Z AUTO 20008G17KT 160V240 10SM -RA CLR 22/M03 A3020 RMK AO2 RAB07 SLP176 P0000 60000 T02171028 10217 20056 58002
Conditions at: KTVL (SOUTH LAKE TAHOE, CA, US) observed 1753 UTC 26 September 2021
Temperature: 21.7°C (71°F)
Dewpoint: -2.8°C (27°F) [RH = 19%]
Pressure (altimeter): 30.20 inches Hg (1022.8 mb)
[Sea-level pressure: 1017.6 mb]
Winds: from the SSW (200 degrees) at 9 MPH (8 knots; 4.1 m/s)
gusting to 20 MPH (17 knots; 8.7 m/s)
Visibility: 10 or more miles (16+ km)
Ceiling: at least 12,000 feet AGL
Clouds: sky clear below 12,000 feet AGL
Weather: -RA  (light rain)

METAR text: KTVL 261653Z AUTO 17013G19KT 10SM CLR 20/M02 A3021 RMK AO2 SLP176 T02001017 TSNO
Conditions at: KTVL (SOUTH LAKE TAHOE, CA, US) observed 1653 UTC 26 September 2021
Temperature: 20.0°C (68°F)
Dewpoint: -1.7°C (29°F) [RH = 23%]
Pressure (altimeter): 30.21 inches Hg (1023.1 mb)
[Sea-level pressure: 1017.6 mb]
Winds: from the S (170 degrees) at 15 MPH (13 knots; 6.7 m/s)
gusting to 22 MPH (19 knots; 9.8 m/s)
Visibility: 10 or more miles (16+ km)
Ceiling: at least 12,000 feet AGL
Clouds: sky clear below 12,000 feet AGL
Weather: automated observation with no human augmentation;
there may or may not be significant weather present at this time

METAR text: KTVL 261553Z AUTO 19008KT 7SM CLR 17/02 A3021 RMK AO2 SLP179 T01670017 TSNO
Conditions at: KTVL (SOUTH LAKE TAHOE, CA, US) observed 1553 UTC 26 September 2021
Temperature: 16.7°C (62°F)
Dewpoint: 1.7°C (35°F) [RH = 36%]
Pressure (altimeter): 30.21 inches Hg (1023.1 mb)
[Sea-level pressure: 1017.9 mb]
Winds: from the S (190 degrees) at 9 MPH (8 knots; 4.1 m/s)
Visibility: 7 miles (11 km)
Ceiling: at least 12,000 feet AGL
Clouds: sky clear below 12,000 feet AGL
Weather: automated observation with no human augmentation;
there may or may not be significant weather present at this time

METAR text: KTVL 261453Z AUTO 00000KT 7SM CLR 08/00 A3021 RMK AO2 SLP190 T00780000 53001 TSNO
Conditions at: KTVL (SOUTH LAKE TAHOE, CA, US) observed 1453 UTC 26 September 2021
Temperature: 7.8°C (46°F)
Dewpoint: 0.0°C (32°F) [RH = 58%]
Pressure (altimeter): 30.21 inches Hg (1023.1 mb)
[Sea-level pressure: 1019.0 mb]
Winds: calm
Visibility: 7 miles (11 km)
Ceiling: at least 12,000 feet AGL
Clouds: sky clear below 12,000 feet AGL
Weather: automated observation with no human augmentation;
there may or may not be significant weather present at this time

METAR text: KTVL 261353Z AUTO 00000KT 7SM CLR 06/M01 A3020 RMK AO2 SLP183 T00611006 TSNO
Conditions at: KTVL (SOUTH LAKE TAHOE, CA, US) observed 1353 UTC 26 September 2021
Temperature: 6.1°C (43°F)
Dewpoint: -0.6°C (31°F) [RH = 62%]
Pressure (altimeter): 30.20 inches Hg (1022.8 mb)
[Sea-level pressure: 1018.3 mb]
Winds: calm
Visibility: 7 miles (11 km)
Ceiling: at least 12,000 feet AGL
Clouds: sky clear below 12,000 feet AGL
Weather: automated observation with no human augmentation;
there may or may not be significant weather present at this time

METAR text: KTVL 261253Z AUTO 18003KT 8SM CLR 07/M01 A3021 RMK AO2 SLP180 T00721006 TSNO
Conditions at: KTVL (SOUTH LAKE TAHOE, CA, US) observed 1253 UTC 26 September 2021
Temperature: 7.2°C (45°F)
Dewpoint: -0.6°C (31°F) [RH = 58%]
Pressure (altimeter): 30.21 inches Hg (1023.1 mb)
[Sea-level pressure: 1018.0 mb]
Winds: from the S (180 degrees) at 3 MPH (3 knots; 1.5 m/s)
Visibility: 8 miles (13 km)
Ceiling: at least 12,000 feet AGL
Clouds: sky clear below 12,000 feet AGL
Weather: automated observation with no human augmentation;
there may or may not be significant weather present at this time

METAR text: KTVL 261153Z AUTO 00000KT 8SM CLR 06/M02 A3021 RMK AO2 SLP180 T00561017 10100 20044 56003
Conditions at: KTVL (SOUTH LAKE TAHOE, CA, US) observed 1153 UTC 26 September 2021
Temperature: 5.6°C (42°F)
Dewpoint: -1.7°C (29°F) [RH = 59%]
Pressure (altimeter): 30.21 inches Hg (1023.1 mb)
[Sea-level pressure: 1018.0 mb]
Winds: calm
Visibility: 8 miles (13 km)
Ceiling: at least 12,000 feet AGL
Clouds: sky clear below 12,000 feet AGL
Weather: automated observation with no human augmentation;
there may or may not be significant weather present at this time

METAR text: KTVL 261053Z AUTO 00000KT 8SM CLR 06/M02 A3021 RMK AO2 SLP177 T00611022
Conditions at: KTVL (SOUTH LAKE TAHOE, CA, US) observed 1053 UTC 26 September 2021
Temperature: 6.1°C (43°F)
Dewpoint: -2.2°C (28°F) [RH = 55%]
Pressure (altimeter): 30.21 inches Hg (1023.1 mb)
[Sea-level pressure: 1017.7 mb]
Winds: calm
Visibility: 8 miles (13 km)
Ceiling: at least 12,000 feet AGL
Clouds: sky clear below 12,000 feet AGL
Weather: automated observation with no human augmentation;
there may or may not be significant weather present at this time

METAR text: KTVL 260953Z AUTO 00000KT 8SM CLR 05/M02 A3021 RMK AO2 SLP179 T00501017
Conditions at: KTVL (SOUTH LAKE TAHOE, CA, US) observed 0953 UTC 26 September 2021
Temperature: 5.0°C (41°F)
Dewpoint: -1.7°C (29°F) [RH = 62%]
Pressure (altimeter): 30.21 inches Hg (1023.1 mb)
[Sea-level pressure: 1017.9 mb]
Winds: calm
Visibility: 8 miles (13 km)
Ceiling: at least 12,000 feet AGL
Clouds: sky clear below 12,000 feet AGL
Weather: automated observation with no human augmentation;
there may or may not be significant weather present at this time

METAR text: KTVL 260853Z AUTO 00000KT 9SM CLR 06/M01 A3022 RMK AO2 SLP181 T00611011 58001
Conditions at: KTVL (SOUTH LAKE TAHOE, CA, US) observed 0853 UTC 26 September 2021
Temperature: 6.1°C (43°F)
Dewpoint: -1.1°C (30°F) [RH = 60%]
Pressure (altimeter): 30.22 inches Hg (1023.5 mb)
[Sea-level pressure: 1018.1 mb]
Winds: calm
Visibility: 9 miles (14 km)
Ceiling: at least 12,000 feet AGL
Clouds: sky clear below 12,000 feet AGL
Weather: automated observation with no human augmentation;
there may or may not be significant weather present at this time

METAR text: KTVL 260753Z AUTO 00000KT 10SM CLR 07/M01 A3022 RMK AO2 SLP182 T00671011 402560028
Conditions at: KTVL (SOUTH LAKE TAHOE, CA, US) observed 0753 UTC 26 September 2021
Temperature: 6.7°C (44°F)
Dewpoint: -1.1°C (30°F) [RH = 57%]
Pressure (altimeter): 30.22 inches Hg (1023.5 mb)
[Sea-level pressure: 1018.2 mb]
Winds: calm
Visibility: 10 or more miles (16+ km)
Ceiling: at least 12,000 feet AGL
Clouds: sky clear below 12,000 feet AGL
Weather: automated observation with no human augmentation;
there may or may not be significant weather present at this time

METAR text: KTVL 260653Z AUTO 00000KT 10SM CLR 08/M02 A3022 RMK AO2 SLP183 T00831017
Conditions at: KTVL (SOUTH LAKE TAHOE, CA, US) observed 0653 UTC 26 September 2021
Temperature: 8.3°C (47°F)
Dewpoint: -1.7°C (29°F) [RH = 49%]
Pressure (altimeter): 30.22 inches Hg (1023.5 mb)
[Sea-level pressure: 1018.3 mb]
Winds: calm
Visibility: 10 or more miles (16+ km)
Ceiling: at least 12,000 feet AGL
Clouds: sky clear below 12,000 feet AGL
Weather: automated observation with no human augmentation;
there may or may not be significant weather present at this time

METAR text: KTVL 260553Z AUTO 18003KT 10SM CLR 09/M01 A3022 RMK AO2 SLP184 T00941011 10233 20094 51004
Conditions at: KTVL (SOUTH LAKE TAHOE, CA, US) observed 0553 UTC 26 September 2021
Temperature: 9.4°C (49°F)
Dewpoint: -1.1°C (30°F) [RH = 48%]
Pressure (altimeter): 30.22 inches Hg (1023.5 mb)
[Sea-level pressure: 1018.4 mb]
Winds: from the S (180 degrees) at 3 MPH (3 knots; 1.5 m/s)
Visibility: 10 or more miles (16+ km)
Ceiling: at least 12,000 feet AGL
Clouds: sky clear below 12,000 feet AGL
Weather: automated observation with no human augmentation;
there may or may not be significant weather present at this time

METAR text: KTVL 260453Z AUTO 20004KT 10SM CLR 12/M01 A3022 RMK AO2 SLP181 T01221011
Conditions at: KTVL (SOUTH LAKE TAHOE, CA, US) observed 0453 UTC 26 September 2021
Temperature: 12.2°C (54°F)
Dewpoint: -1.1°C (30°F) [RH = 40%]
Pressure (altimeter): 30.22 inches Hg (1023.5 mb)
[Sea-level pressure: 1018.1 mb]
Winds: from the SSW (200 degrees) at 5 MPH (4 knots; 2.1 m/s)
Visibility: 10 or more miles (16+ km)
Ceiling: at least 12,000 feet AGL
Clouds: sky clear below 12,000 feet AGL
Weather: automated observation with no human augmentation;
there may or may not be significant weather present at this time

METAR text: KTVL 260353Z AUTO 19004KT 10SM CLR 14/M01 A3022 RMK AO2 SLP191 T01441011
Conditions at: KTVL (SOUTH LAKE TAHOE, CA, US) observed 0353 UTC 26 September 2021
Temperature: 14.4°C (58°F)
Dewpoint: -1.1°C (30°F) [RH = 34%]
Pressure (altimeter): 30.22 inches Hg (1023.5 mb)
[Sea-level pressure: 1019.1 mb]
Winds: from the S (190 degrees) at 5 MPH (4 knots; 2.1 m/s)
Visibility: 10 or more miles (16+ km)
Ceiling: at least 12,000 feet AGL
Clouds: sky clear below 12,000 feet AGL
Weather: automated observation with no human augmentation;
there may or may not be significant weather present at this time

METAR text: KTVL 260253Z AUTO 19003KT 10SM CLR 16/M02 A3021 RMK AO2 SLP196 T01561017 53005
Conditions at: KTVL (SOUTH LAKE TAHOE, CA, US) observed 0253 UTC 26 September 2021
Temperature: 15.6°C (60°F)
Dewpoint: -1.7°C (29°F) [RH = 30%]
Pressure (altimeter): 30.21 inches Hg (1023.1 mb)
[Sea-level pressure: 1019.6 mb]
Winds: from the S (190 degrees) at 3 MPH (3 knots; 1.5 m/s)
Visibility: 10 or more miles (16+ km)
Ceiling: at least 12,000 feet AGL
Clouds: sky clear below 12,000 feet AGL
Weather: automated observation with no human augmentation;
there may or may not be significant weather present at this time

METAR text: KTVL 260153Z AUTO 21003KT 10SM CLR 19/M03 A3020 RMK AO2 SLP190 T01891033
Conditions at: KTVL (SOUTH LAKE TAHOE, CA, US) observed 0153 UTC 26 September 2021
Temperature: 18.9°C (66°F)
Dewpoint: -3.3°C (26°F) [RH = 22%]
Pressure (altimeter): 30.20 inches Hg (1022.8 mb)
[Sea-level pressure: 1019.0 mb]
Winds: from the SSW (210 degrees) at 3 MPH (3 knots; 1.5 m/s)
Visibility: 10 or more miles (16+ km)
Ceiling: at least 12,000 feet AGL
Clouds: sky clear below 12,000 feet AGL
Weather: automated observation with no human augmentation;
there may or may not be significant weather present at this time

METAR text: KTVL 260053Z AUTO 21006KT 10SM CLR 22/M04 A3019 RMK AO2 SLP180 T02171039
Conditions at: KTVL (SOUTH LAKE TAHOE, CA, US) observed 0053 UTC 26 September 2021
Temperature: 21.7°C (71°F)
Dewpoint: -3.9°C (25°F) [RH = 18%]
Pressure (altimeter): 30.19 inches Hg (1022.4 mb)
[Sea-level pressure: 1018.0 mb]
Winds: from the SSW (210 degrees) at 7 MPH (6 knots; 3.1 m/s)
Visibility: 10 or more miles (16+ km)
Ceiling: at least 12,000 feet AGL
Clouds: sky clear below 12,000 feet AGL
Weather: automated observation with no human augmentation;
there may or may not be significant weather present at this time

METAR text: KTVL 252353Z AUTO 21007G15KT 10SM CLR 23/M04 A3019 RMK AO2 SLP176 T02331039 10256 20206 55006
Conditions at: KTVL (SOUTH LAKE TAHOE, CA, US) observed 2353 UTC 25 September 2021
Temperature: 23.3°C (74°F)
Dewpoint: -3.9°C (25°F) [RH = 16%]
Pressure (altimeter): 30.19 inches Hg (1022.4 mb)
[Sea-level pressure: 1017.6 mb]
Winds: from the SSW (210 degrees) at 8 MPH (7 knots; 3.6 m/s)
gusting to 17 MPH (15 knots; 7.7 m/s)
Visibility: 10 or more miles (16+ km)
Ceiling: at least 12,000 feet AGL
Clouds: sky clear below 12,000 feet AGL
Weather: automated observation with no human augmentation;
there may or may not be significant weather present at this time

METAR text: KTVL 252253Z AUTO VRB04KT 8SM CLR 25/M03 A3019 RMK AO2 SLP170 T02501033
Conditions at: KTVL (SOUTH LAKE TAHOE, CA, US) observed 2253 UTC 25 September 2021
Temperature: 25.0°C (77°F)
Dewpoint: -3.3°C (26°F) [RH = 15%]
Pressure (altimeter): 30.19 inches Hg (1022.4 mb)
[Sea-level pressure: 1017.0 mb]
Winds: variable direction winds at 5 MPH (4 knots; 2.1 m/s)
Visibility: 8 miles (13 km)
Ceiling: at least 12,000 feet AGL
Clouds: sky clear below 12,000 feet AGL
Weather: automated observation with no human augmentation;
there may or may not be significant weather present at this time

METAR text: KTVL 252153Z AUTO 19007KT 7SM CLR 24/M03 A3019 RMK AO2 SLP173 T02441033
Conditions at: KTVL (SOUTH LAKE TAHOE, CA, US) observed 2153 UTC 25 September 2021
Temperature: 24.4°C (76°F)
Dewpoint: -3.3°C (26°F) [RH = 16%]
Pressure (altimeter): 30.19 inches Hg (1022.4 mb)
[Sea-level pressure: 1017.3 mb]
Winds: from the S (190 degrees) at 8 MPH (7 knots; 3.6 m/s)
Visibility: 7 miles (11 km)
Ceiling: at least 12,000 feet AGL
Clouds: sky clear below 12,000 feet AGL
Weather: automated observation with no human augmentation;
there may or may not be significant weather present at this time

METAR text: KTVL 252053Z AUTO VRB04KT 6SM HZ CLR 24/M04 A3021 RMK AO2 SLP179 T02441039 58013
Conditions at: KTVL (SOUTH LAKE TAHOE, CA, US) observed 2053 UTC 25 September 2021
Temperature: 24.4°C (76°F)
Dewpoint: -3.9°C (25°F) [RH = 15%]
Pressure (altimeter): 30.21 inches Hg (1023.1 mb)
[Sea-level pressure: 1017.9 mb]
Winds: variable direction winds at 5 MPH (4 knots; 2.1 m/s)
Visibility: 6 miles (10 km)
Ceiling: at least 12,000 feet AGL
Clouds: sky clear below 12,000 feet AGL
Weather: HZ  (haze)

METAR text: KTVL 251953Z AUTO 17013G16KT 6SM HZ CLR 24/M03 A3023 RMK AO2 SLP182 T02441033
Conditions at: KTVL (SOUTH LAKE TAHOE, CA, US) observed 1953 UTC 25 September 2021
Temperature: 24.4°C (76°F)
Dewpoint: -3.3°C (26°F) [RH = 16%]
Pressure (altimeter): 30.23 inches Hg (1023.8 mb)
[Sea-level pressure: 1018.2 mb]
Winds: from the S (170 degrees) at 15 MPH (13 knots; 6.7 m/s)
gusting to 18 MPH (16 knots; 8.2 m/s)
Visibility: 6 miles (10 km)
Ceiling: at least 12,000 feet AGL
Clouds: sky clear below 12,000 feet AGL
Weather: HZ  (haze)

METAR text: KTVL 251853Z AUTO 03008KT 6SM HZ CLR 23/05 A3025 RMK AO2 SLP188 T02280050
Conditions at: KTVL (SOUTH LAKE TAHOE, CA, US) observed 1853 UTC 25 September 2021
Temperature: 22.8°C (73°F)
Dewpoint: 5.0°C (41°F) [RH = 31%]
Pressure (altimeter): 30.25 inches Hg (1024.5 mb)
[Sea-level pressure: 1018.8 mb]
Winds: from the NNE (30 degrees) at 9 MPH (8 knots; 4.1 m/s)
Visibility: 6 miles (10 km)
Ceiling: at least 12,000 feet AGL
Clouds: sky clear below 12,000 feet AGL
Weather: HZ  (haze)

METAR text: KTVL 251753Z AUTO 03006KT 5SM HZ CLR 21/04 A3026 RMK AO2 SLP193 T02060044 10211 20028 58004
Conditions at: KTVL (SOUTH LAKE TAHOE, CA, US) observed 1753 UTC 25 September 2021
Temperature: 20.6°C (69°F)
Dewpoint: 4.4°C (40°F) [RH = 34%]
Pressure (altimeter): 30.26 inches Hg (1024.8 mb)
[Sea-level pressure: 1019.3 mb]
Winds: from the NNE (30 degrees) at 7 MPH (6 knots; 3.1 m/s)
Visibility: 5 miles ( 8 km)
Ceiling: at least 12,000 feet AGL
Clouds: sky clear below 12,000 feet AGL
Weather: HZ  (haze)

METAR text: KTVL 251706Z AUTO 00000KT 5SM HZ CLR 20/02 A3027 RMK AO2 T02000017
Conditions at: KTVL (SOUTH LAKE TAHOE, CA, US) observed 1706 UTC 25 September 2021
Temperature: 20.0°C (68°F)
Dewpoint: 1.7°C (35°F) [RH = 30%]
Pressure (altimeter): 30.27 inches Hg (1025.1 mb)
Winds: calm
Visibility: 5 miles ( 8 km)
Ceiling: at least 12,000 feet AGL
Clouds: sky clear below 12,000 feet AGL
Weather: HZ  (haze)

METAR text: KTVL 251653Z AUTO 00000KT 4SM HZ CLR 18/02 A3027 RMK AO2 SLP195 T01830022
Conditions at: KTVL (SOUTH LAKE TAHOE, CA, US) observed 1653 UTC 25 September 2021
Temperature: 18.3°C (65°F)
Dewpoint: 2.2°C (36°F) [RH = 34%]
Pressure (altimeter): 30.27 inches Hg (1025.1 mb)
[Sea-level pressure: 1019.5 mb]
Winds: calm
Visibility: 4 miles ( 6 km)
Ceiling: at least 12,000 feet AGL
Clouds: sky clear below 12,000 feet AGL
Weather: HZ  (haze)

METAR text: KTVL 251638Z AUTO 00000KT 4SM HZ CLR 16/02 A3027 RMK AO2 T01560022
Conditions at: KTVL (SOUTH LAKE TAHOE, CA, US) observed 1638 UTC 25 September 2021
Temperature: 15.6°C (60°F)
Dewpoint: 2.2°C (36°F) [RH = 40%]
Pressure (altimeter): 30.27 inches Hg (1025.1 mb)
Winds: calm
Visibility: 4 miles ( 6 km)
Ceiling: at least 12,000 feet AGL
Clouds: sky clear below 12,000 feet AGL
Weather: HZ  (haze)

METAR text: KTVL 251623Z AUTO 00000KT 5SM HZ CLR 13/02 A3027 RMK AO2 T01330017
Conditions at: KTVL (SOUTH LAKE TAHOE, CA, US) observed 1623 UTC 25 September 2021
Temperature: 13.3°C (56°F)
Dewpoint: 1.7°C (35°F) [RH = 45%]
Pressure (altimeter): 30.27 inches Hg (1025.1 mb)
Winds: calm
Visibility: 5 miles ( 8 km)
Ceiling: at least 12,000 feet AGL
Clouds: sky clear below 12,000 feet AGL
Weather: HZ  (haze)

METAR text: KTVL 251609Z AUTO 18003KT 4SM HZ CLR 12/01 A3027 RMK AO2 T01170011
Conditions at: KTVL (SOUTH LAKE TAHOE, CA, US) observed 1609 UTC 25 September 2021
Temperature: 11.7°C (53°F)
Dewpoint: 1.1°C (34°F) [RH = 48%]
Pressure (altimeter): 30.27 inches Hg (1025.1 mb)
Winds: from the S (180 degrees) at 3 MPH (3 knots; 1.5 m/s)
Visibility: 4 miles ( 6 km)
Ceiling: at least 12,000 feet AGL
Clouds: sky clear below 12,000 feet AGL
Weather: HZ  (haze)

METAR text: KTVL 251553Z AUTO 19003KT 5SM HZ CLR 10/01 A3027 RMK AO2 SLP206 T01000006
Conditions at: KTVL (SOUTH LAKE TAHOE, CA, US) observed 1553 UTC 25 September 2021
Temperature: 10.0°C (50°F)
Dewpoint: 0.6°C (33°F) [RH = 52%]
Pressure (altimeter): 30.27 inches Hg (1025.1 mb)
[Sea-level pressure: 1020.6 mb]
Winds: from the S (190 degrees) at 3 MPH (3 knots; 1.5 m/s)
Visibility: 5 miles ( 8 km)
Ceiling: at least 12,000 feet AGL
Clouds: sky clear below 12,000 feet AGL
Weather: HZ  (haze)

METAR text: KTVL 251453Z AUTO 00000KT 5SM HZ CLR 04/M02 A3027 RMK AO2 SLP213 T00391017 51008
Conditions at: KTVL (SOUTH LAKE TAHOE, CA, US) observed 1453 UTC 25 September 2021
Temperature: 3.9°C (39°F)
Dewpoint: -1.7°C (29°F) [RH = 67%]
Pressure (altimeter): 30.27 inches Hg (1025.1 mb)
[Sea-level pressure: 1021.3 mb]
Winds: calm
Visibility: 5 miles ( 8 km)
Ceiling: at least 12,000 feet AGL
Clouds: sky clear below 12,000 feet AGL
Weather: HZ  (haze)

METAR text: KTVL 251353Z AUTO 20003KT 6SM HZ CLR 03/M02 A3027 RMK AO2 SLP210 T00331017
Conditions at: KTVL (SOUTH LAKE TAHOE, CA, US) observed 1353 UTC 25 September 2021
Temperature: 3.3°C (38°F)
Dewpoint: -1.7°C (29°F) [RH = 70%]
Pressure (altimeter): 30.27 inches Hg (1025.1 mb)
[Sea-level pressure: 1021.0 mb]
Winds: from the SSW (200 degrees) at 3 MPH (3 knots; 1.5 m/s)
Visibility: 6 miles (10 km)
Ceiling: at least 12,000 feet AGL
Clouds: sky clear below 12,000 feet AGL
Weather: HZ  (haze)

METAR text: KTVL 251253Z AUTO 19003KT 6SM HZ CLR 04/M02 A3025 RMK AO2 SLP201 T00441017
Conditions at: KTVL (SOUTH LAKE TAHOE, CA, US) observed 1253 UTC 25 September 2021
Temperature: 4.4°C (40°F)
Dewpoint: -1.7°C (29°F) [RH = 64%]
Pressure (altimeter): 30.25 inches Hg (1024.5 mb)
[Sea-level pressure: 1020.1 mb]
Winds: from the S (190 degrees) at 3 MPH (3 knots; 1.5 m/s)
Visibility: 6 miles (10 km)
Ceiling: at least 12,000 feet AGL
Clouds: sky clear below 12,000 feet AGL
Weather: HZ  (haze)

METAR text: KTVL 251153Z AUTO 20003KT 6SM HZ CLR 04/M02 A3024 RMK AO2 SLP190 T00441017 10111 20039 58001
Conditions at: KTVL (SOUTH LAKE TAHOE, CA, US) observed 1153 UTC 25 September 2021
Temperature: 4.4°C (40°F)
Dewpoint: -1.7°C (29°F) [RH = 64%]
Pressure (altimeter): 30.24 inches Hg (1024.1 mb)
[Sea-level pressure: 1019.0 mb]
Winds: from the SSW (200 degrees) at 3 MPH (3 knots; 1.5 m/s)
Visibility: 6 miles (10 km)
Ceiling: at least 12,000 feet AGL
Clouds: sky clear below 12,000 feet AGL
Weather: HZ  (haze)

METAR text: KTVL 251053Z AUTO 00000KT 6SM HZ CLR 06/M02 A3024 RMK AO2 SLP190 T00561017
Conditions at: KTVL (SOUTH LAKE TAHOE, CA, US) observed 1053 UTC 25 September 2021
Temperature: 5.6°C (42°F)
Dewpoint: -1.7°C (29°F) [RH = 59%]
Pressure (altimeter): 30.24 inches Hg (1024.1 mb)
[Sea-level pressure: 1019.0 mb]
Winds: calm
Visibility: 6 miles (10 km)
Ceiling: at least 12,000 feet AGL
Clouds: sky clear below 12,000 feet AGL
Weather: HZ  (haze)

METAR text: KTVL 250953Z AUTO 21003KT 6SM HZ CLR 07/M01 A3025 RMK AO2 SLP190 T00671011
Conditions at: KTVL (SOUTH LAKE TAHOE, CA, US) observed 0953 UTC 25 September 2021
Temperature: 6.7°C (44°F)
Dewpoint: -1.1°C (30°F) [RH = 57%]
Pressure (altimeter): 30.25 inches Hg (1024.5 mb)
[Sea-level pressure: 1019.0 mb]
Winds: from the SSW (210 degrees) at 3 MPH (3 knots; 1.5 m/s)
Visibility: 6 miles (10 km)
Ceiling: at least 12,000 feet AGL
Clouds: sky clear below 12,000 feet AGL
Weather: HZ  (haze)

METAR text: KTVL 250853Z AUTO 00000KT 7SM CLR 07/M01 A3025 RMK AO2 SLP193 T00671006 53003
Conditions at: KTVL (SOUTH LAKE TAHOE, CA, US) observed 0853 UTC 25 September 2021
Temperature: 6.7°C (44°F)
Dewpoint: -0.6°C (31°F) [RH = 60%]
Pressure (altimeter): 30.25 inches Hg (1024.5 mb)
[Sea-level pressure: 1019.3 mb]
Winds: calm
Visibility: 7 miles (11 km)
Ceiling: at least 12,000 feet AGL
Clouds: sky clear below 12,000 feet AGL
Weather: automated observation with no human augmentation;
there may or may not be significant weather present at this time

METAR text: KTVL 250753Z AUTO 00000KT 7SM CLR 08/00 A3024 RMK AO2 SLP190 T00780000 402610006
Conditions at: KTVL (SOUTH LAKE TAHOE, CA, US) observed 0753 UTC 25 September 2021
Temperature: 7.8°C (46°F)
Dewpoint: 0.0°C (32°F) [RH = 58%]
Pressure (altimeter): 30.24 inches Hg (1024.1 mb)
[Sea-level pressure: 1019.0 mb]
Winds: calm
Visibility: 7 miles (11 km)
Ceiling: at least 12,000 feet AGL
Clouds: sky clear below 12,000 feet AGL
Weather: automated observation with no human augmentation;
there may or may not be significant weather present at this time

METAR text: KTVL 250653Z AUTO 00000KT 10SM CLR 09/00 A3024 RMK AO2 SLP188 T00940000
Conditions at: KTVL (SOUTH LAKE TAHOE, CA, US) observed 0653 UTC 25 September 2021
Temperature: 9.4°C (49°F)
Dewpoint: 0.0°C (32°F) [RH = 52%]
Pressure (altimeter): 30.24 inches Hg (1024.1 mb)
[Sea-level pressure: 1018.8 mb]
Winds: calm
Visibility: 10 or more miles (16+ km)
Ceiling: at least 12,000 feet AGL
Clouds: sky clear below 12,000 feet AGL
Weather: automated observation with no human augmentation;
there may or may not be significant weather present at this time

Forecast for: KTVL (SOUTH LAKE TAHOE, CA, US)
Text: KTVL 261720Z 2618/2718 18009KT 6SM HZ FEW200
Forecast period: 1800 to 1900 UTC 26 September 2021
Forecast type: FROM: standard forecast or significant change
Winds: from the S (180 degrees) at 10 MPH (9 knots; 4.6 m/s)
Visibility: 6 miles (10 km)
Ceiling: at least 12,000 feet AGL
Clouds: few clouds at 20000 feet AGL
Weather: HZ  (haze)
Text: FM261900 20011G23KT 6SM HZ FEW200
Forecast period: 1900 UTC 26 September 2021 to 0200 UTC 27 September 2021
Forecast type: FROM: standard forecast or significant change
Winds: from the SSW (200 degrees) at 13 MPH (11 knots; 5.7 m/s)
gusting to 26 MPH (23 knots; 11.8 m/s)
Visibility: 6 miles (10 km)
Ceiling: at least 12,000 feet AGL
Clouds: few clouds at 20000 feet AGL
Weather: HZ  (haze)
Text: FM270200 19005KT P6SM SCT250 WS020/24035KT
Forecast period: 0200 to 1700 UTC 27 September 2021
Forecast type: FROM: standard forecast or significant change
Winds: from the S (190 degrees) at 6 MPH (5 knots; 2.6 m/s)
Visibility: 6 or more miles (10+ km)
Ceiling: at least 12,000 feet AGL
Clouds: scattered clouds at 25000 feet AGL
Wind Shear: at 2000 feet ( 610 m) AGL, from the WSW (240 degrees) at 40 MPH (35 knots; 18.2 m/s)
Weather: no significant weather forecast for this period
Text: FM271700 19010G18KT P6SM FEW150 SCT200
Forecast period: 1700 to 1800 UTC 27 September 2021
Forecast type: FROM: standard forecast or significant change
Winds: from the S (190 degrees) at 12 MPH (10 knots; 5.1 m/s)
gusting to 21 MPH (18 knots; 9.3 m/s)
Visibility: 6 or more miles (10+ km)
Ceiling: at least 12,000 feet AGL
Clouds: few clouds at 15000 feet AGL
scattered clouds at 20000 feet AGL
Weather: no significant weather forecast for this period